Accueil
METAR-TAF:

METAR-TAF

Aéroports :

Homer, Alaska, États-Unis

latitude: 59-39N, longitude: 151-29W, altitude: 26 m

Observation

Le bulletin a été fait il y a 1 heure et 6 minutes, à 22:53 UTC
Vent 4 kt de direction variable
Température -5°C
Humidité 79%
Pression 1005 hPa
Visibilité: 16.1 km
Ciel clair

METAR: PAHO 222253Z VRB04KT 10SM CLR M05/M08 A2968 RMK AO2 SLP053 T10501078

Heure: 14:59 (23:59 UTC)

Prévision

Le bulletin a été fait il y a 25 minutes, à 23:34 UTC
Prévision valable du 23 à 00 UTC au 23 à 24 UTC
Vent 5 kt de direction variable
Visibilité: 10 km
Quelques nuages à une hauteur de 2800 ft
Temporairement
du 23 à 00 UTC au 23 à 03 UTC
Nuages fragmentés à une hauteur de 2800 ft

TAF: PAHO 222334Z 2300/2324 VRB05KT P6SM FEW028 TEMPO 2300/2303 BKN028

Observations et prévisions météorologiques de plus de 4000 aéroports (messages METAR et TAF).

Les stations disponibles sont représentées par des disques jaunes et rouges sur la carte.

Passer la souris dessus pour voir le nom de la station.

Cliquer dessus pour voir les observations et prévisions météorologiques.

Pour changer de carte: cliquez sur les boutons verts avec une croix noire pour zoomer, sur le bouton vert avec un tiret pour effectuer un zoom arrière, ou sur les flèches vertes pour les cartes adjacentes.


METAR-TAF: